TGL66PC LFBZ-LICC
Flight info
| Callsign | TGL66PC |
|---|---|
| Flight time | 2h 30m |
| Altitude | 36000 |
| Route | SOVOS G17 ORTEZ DCT TBO DCT PERDU N862 POSSY M601 BCN N725 ORKUM M603 ELSAG DCT ALG/N0437F370 DCT QUENN DCT RONAB DCT BEKIV/N0344F190 M871 LIBRO |
| Aircraft | A320/M-SDE3FGHIRWY/LB1 |
Departure
| Time | 2026-04-25 08:26 |
|---|---|
| Airport | Biarritz Pays Basque airport (LFBZ) |
Arrival
| Time | 2026-04-25 10:56 |
|---|---|
| Airport | Catania-Fontanarossa Airport (LICC) |
| Time | Latitude | Longitude | Altitude | Speed | Heading |
|---|---|---|---|---|---|
| 2026-04-25 07:44 | 43.47128 | -1.53071 | 256 ft | 0 kts | 7° |
| 2026-04-25 08:12 | 43.47127 | -1.53072 | 256 ft | 2 kts | 7° |
| 2026-04-25 08:12 | 43.47102 | -1.53075 | 256 ft | 4 kts | 2° |
| 2026-04-25 08:13 | 43.47075 | -1.53077 | 256 ft | 4 kts | 10° |
| 2026-04-25 08:13 | 43.47055 | -1.53088 | 256 ft | 4 kts | 72° |
| 2026-04-25 08:13 | 43.47053 | -1.53093 | 256 ft | 0 kts | 87° |
| 2026-04-25 08:16 | 43.47054 | -1.53078 | 256 ft | 5 kts | 86° |
| 2026-04-25 08:16 | 43.47055 | -1.53024 | 256 ft | 5 kts | 89° |
| 2026-04-25 08:17 | 43.47056 | -1.52973 | 255 ft | 6 kts | 89° |
| 2026-04-25 08:17 | 43.47044 | -1.52904 | 255 ft | 9 kts | 124° |
| 2026-04-25 08:17 | 43.47000 | -1.52846 | 255 ft | 8 kts | 121° |
| 2026-04-25 08:17 | 43.46993 | -1.52772 | 254 ft | 8 kts | 89° |
| 2026-04-25 08:18 | 43.46994 | -1.52702 | 253 ft | 7 kts | 89° |
| 2026-04-25 08:18 | 43.46995 | -1.52637 | 253 ft | 7 kts | 89° |
| 2026-04-25 08:18 | 43.46995 | -1.52576 | 253 ft | 6 kts | 89° |
| 2026-04-25 08:18 | 43.46996 | -1.52521 | 252 ft | 5 kts | 89° |
| 2026-04-25 08:19 | 43.46997 | -1.52456 | 252 ft | 8 kts | 89° |
| 2026-04-25 08:19 | 43.46998 | -1.52378 | 251 ft | 8 kts | 89° |
| 2026-04-25 08:19 | 43.46999 | -1.52299 | 251 ft | 8 kts | 89° |
| 2026-04-25 08:19 | 43.46994 | -1.52222 | 250 ft | 8 kts | 109° |
| 2026-04-25 08:20 | 43.46952 | -1.52176 | 250 ft | 8 kts | 171° |
| 2026-04-25 08:20 | 43.46939 | -1.52176 | 250 ft | 0 kts | 179° |
| 2026-04-25 08:21 | 43.46933 | -1.52175 | 250 ft | 3 kts | 179° |
| 2026-04-25 08:22 | 43.46897 | -1.52173 | 249 ft | 7 kts | 173° |
| 2026-04-25 08:22 | 43.46847 | -1.52119 | 249 ft | 12 kts | 114° |
| 2026-04-25 08:22 | 43.46843 | -1.51989 | 249 ft | 16 kts | 90° |
| 2026-04-25 08:22 | 43.46845 | -1.51812 | 247 ft | 21 kts | 89° |
| 2026-04-25 08:23 | 43.46848 | -1.51585 | 245 ft | 26 kts | 89° |
| 2026-04-25 08:23 | 43.46851 | -1.51318 | 243 ft | 29 kts | 89° |
| 2026-04-25 08:23 | 43.46852 | -1.51107 | 242 ft | 17 kts | 88° |
| 2026-04-25 08:23 | 43.46886 | -1.50988 | 242 ft | 9 kts | 68° |
| 2026-04-25 08:24 | 43.46851 | -1.50953 | 241 ft | 7 kts | 201° |
| 2026-04-25 08:24 | 43.46850 | -1.50998 | 241 ft | 4 kts | 288° |
| 2026-04-25 08:24 | 43.46853 | -1.51039 | 242 ft | 4 kts | 269° |
| 2026-04-25 08:24 | 43.46853 | -1.51043 | 242 ft | 0 kts | 269° |
| 2026-04-25 08:26 | 43.46852 | -1.51071 | 242 ft | 22 kts | 269° |
| 2026-04-25 08:26 | 43.46846 | -1.51656 | 245 ft | 95 kts | 269° |
| 2026-04-25 08:26 | 43.46835 | -1.52838 | 266 ft | 148 kts | 269° |
| 2026-04-25 08:26 | 43.46797 | -1.54271 | 917 ft | 150 kts | 268° |
| 2026-04-25 08:27 | 43.46755 | -1.55705 | 1716 ft | 149 kts | 268° |
| 2026-04-25 08:27 | 43.46742 | -1.57149 | 2341 ft | 156 kts | 270° |
| 2026-04-25 08:27 | 43.46732 | -1.58724 | 2685 ft | 175 kts | 269° |
| 2026-04-25 08:27 | 43.46620 | -1.60430 | 3158 ft | 188 kts | 251° |
| 2026-04-25 08:28 | 43.45687 | -1.61814 | 3422 ft | 218 kts | 205° |
| 2026-04-25 08:28 | 43.44136 | -1.61948 | 3940 ft | 236 kts | 163° |
| 2026-04-25 08:28 | 43.42807 | -1.60611 | 4646 ft | 244 kts | 123° |
| 2026-04-25 08:28 | 43.42118 | -1.58450 | 5371 ft | 250 kts | 105° |
| 2026-04-25 08:29 | 43.41722 | -1.56124 | 6262 ft | 248 kts | 101° |
| 2026-04-25 08:29 | 43.41375 | -1.53798 | 7106 ft | 249 kts | 102° |
| 2026-04-25 08:29 | 43.40988 | -1.51468 | 7855 ft | 252 kts | 104° |
| 2026-04-25 08:29 | 43.40541 | -1.49127 | 8618 ft | 254 kts | 106° |
| 2026-04-25 08:30 | 43.40041 | -1.46780 | 9406 ft | 257 kts | 108° |
| 2026-04-25 08:30 | 43.39531 | -1.44405 | 10187 ft | 260 kts | 102° |
| 2026-04-25 08:30 | 43.39362 | -1.41867 | 10647 ft | 278 kts | 92° |
| 2026-04-25 08:30 | 43.39334 | -1.39091 | 10893 ft | 302 kts | 91° |
| 2026-04-25 08:31 | 43.39310 | -1.36132 | 11101 ft | 325 kts | 91° |
| 2026-04-25 08:31 | 43.39282 | -1.32935 | 11468 ft | 341 kts | 91° |
| 2026-04-25 08:31 | 43.39249 | -1.29642 | 12106 ft | 347 kts | 91° |
| 2026-04-25 08:31 | 43.39211 | -1.26298 | 12802 ft | 352 kts | 91° |
| 2026-04-25 08:32 | 43.39167 | -1.22910 | 13498 ft | 356 kts | 92° |
| 2026-04-25 08:32 | 43.39120 | -1.19483 | 14159 ft | 361 kts | 92° |
| 2026-04-25 08:32 | 43.39071 | -1.16015 | 14775 ft | 364 kts | 91° |
| 2026-04-25 08:32 | 43.39023 | -1.12524 | 15392 ft | 367 kts | 91° |
| 2026-04-25 08:33 | 43.38974 | -1.09003 | 16014 ft | 370 kts | 91° |
| 2026-04-25 08:33 | 43.38926 | -1.05449 | 16650 ft | 372 kts | 91° |
| 2026-04-25 08:33 | 43.38878 | -1.01877 | 17279 ft | 375 kts | 91° |
| 2026-04-25 08:33 | 43.38825 | -0.98282 | 17906 ft | 377 kts | 91° |
| 2026-04-25 08:34 | 43.38768 | -0.94708 | 18511 ft | 380 kts | 91° |
| 2026-04-25 08:34 | 43.38709 | -0.91063 | 19027 ft | 383 kts | 92° |
| 2026-04-25 08:34 | 43.38404 | -0.87422 | 19526 ft | 385 kts | 99° |
| 2026-04-25 08:34 | 43.37980 | -0.83772 | 20039 ft | 388 kts | 99° |
| 2026-04-25 08:35 | 43.37551 | -0.80099 | 20548 ft | 391 kts | 100° |
| 2026-04-25 08:35 | 43.37114 | -0.76383 | 21040 ft | 394 kts | 100° |
| 2026-04-25 08:35 | 43.36676 | -0.72651 | 21499 ft | 397 kts | 99° |
| 2026-04-25 08:35 | 43.36452 | -0.68849 | 21951 ft | 401 kts | 94° |
| 2026-04-25 08:36 | 43.36321 | -0.65008 | 22423 ft | 404 kts | 94° |
| 2026-04-25 08:36 | 43.36190 | -0.61178 | 22882 ft | 407 kts | 94° |
| 2026-04-25 08:36 | 43.36054 | -0.57268 | 23342 ft | 410 kts | 94° |
| 2026-04-25 08:36 | 43.35913 | -0.53335 | 23790 ft | 413 kts | 94° |
| 2026-04-25 08:37 | 43.35766 | -0.49376 | 24173 ft | 416 kts | 94° |
| 2026-04-25 08:37 | 43.35615 | -0.45399 | 24555 ft | 418 kts | 94° |
| 2026-04-25 08:37 | 43.35464 | -0.41395 | 24936 ft | 420 kts | 94° |
| 2026-04-25 08:37 | 43.35313 | -0.37367 | 25322 ft | 422 kts | 94° |
| 2026-04-25 08:38 | 43.35160 | -0.33330 | 25692 ft | 424 kts | 94° |
| 2026-04-25 08:38 | 43.35002 | -0.29268 | 26058 ft | 427 kts | 94° |
| 2026-04-25 08:38 | 43.34842 | -0.25187 | 26420 ft | 429 kts | 94° |
| 2026-04-25 08:38 | 43.34684 | -0.21143 | 26778 ft | 431 kts | 94° |
| 2026-04-25 08:39 | 43.34522 | -0.17004 | 27138 ft | 433 kts | 94° |
| 2026-04-25 08:39 | 43.34358 | -0.12865 | 27492 ft | 435 kts | 94° |
| 2026-04-25 08:39 | 43.34190 | -0.08704 | 27836 ft | 437 kts | 94° |
| 2026-04-25 08:39 | 43.34018 | -0.04512 | 28178 ft | 439 kts | 94° |
| 2026-04-25 08:40 | 43.33844 | -0.00313 | 28517 ft | 442 kts | 94° |
| 2026-04-25 08:40 | 43.33373 | 0.03848 | 28826 ft | 442 kts | 108° |
| 2026-04-25 08:40 | 43.32106 | 0.07670 | 29136 ft | 441 kts | 125° |
| 2026-04-25 08:40 | 43.30148 | 0.10824 | 29442 ft | 440 kts | 141° |
| 2026-04-25 08:41 | 43.27613 | 0.13147 | 29742 ft | 439 kts | 156° |
| 2026-04-25 08:41 | 43.24721 | 0.14438 | 30036 ft | 438 kts | 172° |
| 2026-04-25 08:41 | 43.21682 | 0.14706 | 30308 ft | 438 kts | 181° |
| 2026-04-25 08:41 | 43.18625 | 0.14738 | 30560 ft | 440 kts | 181° |
| 2026-04-25 08:42 | 43.15556 | 0.14756 | 30812 ft | 441 kts | 181° |
| 2026-04-25 08:42 | 43.12474 | 0.14769 | 31065 ft | 443 kts | 181° |
| 2026-04-25 08:42 | 43.09389 | 0.14784 | 31311 ft | 444 kts | 181° |
| 2026-04-25 08:42 | 43.06336 | 0.14804 | 31610 ft | 444 kts | 181° |
| 2026-04-25 08:43 | 43.03248 | 0.14832 | 31966 ft | 443 kts | 181° |
| 2026-04-25 08:43 | 43.00167 | 0.14865 | 32303 ft | 442 kts | 181° |
| 2026-04-25 08:43 | 42.97093 | 0.14897 | 32662 ft | 441 kts | 181° |
| 2026-04-25 08:43 | 42.94026 | 0.14926 | 33010 ft | 440 kts | 181° |
| 2026-04-25 08:44 | 42.90971 | 0.14952 | 33353 ft | 439 kts | 181° |
| 2026-04-25 08:44 | 42.87921 | 0.14976 | 33697 ft | 438 kts | 181° |
| 2026-04-25 08:44 | 42.84878 | 0.15003 | 34037 ft | 437 kts | 181° |
| 2026-04-25 08:44 | 42.81843 | 0.15032 | 34359 ft | 436 kts | 181° |
| 2026-04-25 08:45 | 42.78815 | 0.15060 | 34665 ft | 435 kts | 181° |
| 2026-04-25 08:45 | 42.75786 | 0.15088 | 34935 ft | 434 kts | 181° |
| 2026-04-25 08:45 | 42.72810 | 0.15115 | 35192 ft | 433 kts | 181° |
| 2026-04-25 08:45 | 42.69799 | 0.15141 | 35454 ft | 432 kts | 181° |
| 2026-04-25 08:46 | 42.66795 | 0.15167 | 35693 ft | 431 kts | 181° |
| 2026-04-25 08:46 | 42.63795 | 0.15193 | 35956 ft | 430 kts | 181° |
| 2026-04-25 08:46 | 42.60794 | 0.15219 | 36123 ft | 430 kts | 180° |
| 2026-04-25 08:47 | 42.54811 | 0.15267 | 36170 ft | 429 kts | 180° |
| 2026-04-25 08:47 | 42.48847 | 0.15315 | 36163 ft | 428 kts | 180° |
| 2026-04-25 08:48 | 42.42920 | 0.15380 | 36160 ft | 428 kts | 180° |
| 2026-04-25 08:48 | 42.36951 | 0.15444 | 36159 ft | 429 kts | 180° |
| 2026-04-25 08:49 | 42.30974 | 0.15492 | 36164 ft | 429 kts | 180° |
| 2026-04-25 08:49 | 42.25002 | 0.15541 | 36164 ft | 429 kts | 180° |
| 2026-04-25 08:50 | 42.19027 | 0.15603 | 36157 ft | 429 kts | 180° |
| 2026-04-25 08:50 | 42.13084 | 0.15792 | 36163 ft | 430 kts | 173° |
| 2026-04-25 08:50 | 42.10165 | 0.16713 | 36164 ft | 431 kts | 160° |
| 2026-04-25 08:51 | 42.07454 | 0.18454 | 36166 ft | 433 kts | 148° |
| 2026-04-25 08:51 | 42.05075 | 0.20939 | 36160 ft | 434 kts | 136° |
| 2026-04-25 08:51 | 42.03128 | 0.24052 | 36163 ft | 436 kts | 124° |
| 2026-04-25 08:52 | 42.00305 | 0.31237 | 36166 ft | 438 kts | 118° |
| 2026-04-25 08:52 | 41.97564 | 0.38548 | 36155 ft | 438 kts | 117° |
| 2026-04-25 08:53 | 41.94811 | 0.45860 | 36168 ft | 438 kts | 118° |
| 2026-04-25 08:53 | 41.92047 | 0.53150 | 36167 ft | 438 kts | 118° |
| 2026-04-25 08:54 | 41.89279 | 0.60446 | 36164 ft | 438 kts | 118° |
| 2026-04-25 08:54 | 41.86530 | 0.67685 | 36165 ft | 438 kts | 118° |
| 2026-04-25 08:55 | 41.83763 | 0.74962 | 36165 ft | 438 kts | 118° |
| 2026-04-25 08:55 | 41.80989 | 0.82226 | 36163 ft | 437 kts | 118° |
| 2026-04-25 08:56 | 41.78209 | 0.89483 | 36160 ft | 437 kts | 118° |
| 2026-04-25 08:56 | 41.75429 | 0.96741 | 36162 ft | 437 kts | 118° |
| 2026-04-25 08:57 | 41.72654 | 1.03940 | 36159 ft | 437 kts | 118° |
| 2026-04-25 08:57 | 41.69861 | 1.11172 | 36158 ft | 437 kts | 118° |
| 2026-04-25 08:58 | 41.67066 | 1.18395 | 36160 ft | 436 kts | 118° |
| 2026-04-25 08:58 | 41.64275 | 1.25590 | 36162 ft | 435 kts | 118° |
| 2026-04-25 08:59 | 41.61485 | 1.32766 | 36159 ft | 435 kts | 118° |
| 2026-04-25 08:59 | 41.58710 | 1.39895 | 36163 ft | 435 kts | 118° |
| 2026-04-25 09:00 | 41.55911 | 1.47058 | 36163 ft | 435 kts | 118° |
| 2026-04-25 09:00 | 41.53101 | 1.54221 | 36168 ft | 435 kts | 118° |
| 2026-04-25 09:01 | 41.50288 | 1.61388 | 36167 ft | 436 kts | 118° |
| 2026-04-25 09:01 | 41.47486 | 1.68513 | 36169 ft | 436 kts | 118° |
| 2026-04-25 09:02 | 41.44662 | 1.75688 | 36169 ft | 436 kts | 118° |
| 2026-04-25 09:02 | 41.42311 | 1.81628 | 36169 ft | 436 kts | 118° |
| 2026-04-25 09:03 | 41.39474 | 1.88778 | 36167 ft | 436 kts | 118° |
| 2026-04-25 09:03 | 41.36175 | 1.97070 | 36166 ft | 436 kts | 118° |
| 2026-04-25 09:04 | 41.33797 | 2.03047 | 36167 ft | 436 kts | 118° |
| 2026-04-25 09:04 | 41.31064 | 2.10246 | 36166 ft | 436 kts | 111° |
| 2026-04-25 09:05 | 41.29523 | 2.18033 | 36166 ft | 436 kts | 102° |
| 2026-04-25 09:05 | 41.28232 | 2.25920 | 36166 ft | 436 kts | 103° |
| 2026-04-25 09:06 | 41.26925 | 2.33822 | 36165 ft | 437 kts | 103° |
| 2026-04-25 09:06 | 41.25611 | 2.41717 | 36166 ft | 437 kts | 103° |
| 2026-04-25 09:07 | 41.24298 | 2.49573 | 36167 ft | 437 kts | 103° |
| 2026-04-25 09:07 | 41.22977 | 2.57466 | 36166 ft | 437 kts | 103° |
| 2026-04-25 09:08 | 41.21644 | 2.65360 | 36163 ft | 437 kts | 103° |
| 2026-04-25 09:08 | 41.20305 | 2.73244 | 36163 ft | 438 kts | 103° |
| 2026-04-25 09:09 | 41.18975 | 2.81083 | 36160 ft | 438 kts | 103° |
| 2026-04-25 09:09 | 41.17630 | 2.88978 | 36160 ft | 438 kts | 103° |
| 2026-04-25 09:10 | 41.16272 | 2.96857 | 36160 ft | 438 kts | 103° |
| 2026-04-25 09:10 | 41.14917 | 3.04736 | 36160 ft | 438 kts | 103° |
| 2026-04-25 09:11 | 41.12870 | 3.16569 | 36166 ft | 439 kts | 103° |
| 2026-04-25 09:11 | 41.11496 | 3.24457 | 36166 ft | 439 kts | 103° |
| 2026-04-25 09:12 | 41.10123 | 3.32339 | 36166 ft | 439 kts | 103° |
| 2026-04-25 09:12 | 41.08747 | 3.40171 | 36166 ft | 439 kts | 103° |
| 2026-04-25 09:13 | 41.07348 | 3.48051 | 36165 ft | 438 kts | 103° |
| 2026-04-25 09:13 | 41.05949 | 3.55928 | 36166 ft | 438 kts | 103° |
| 2026-04-25 09:14 | 41.04552 | 3.63787 | 36165 ft | 438 kts | 103° |
| 2026-04-25 09:14 | 41.03156 | 3.71635 | 36165 ft | 438 kts | 103° |
| 2026-04-25 09:15 | 41.01756 | 3.79430 | 36166 ft | 438 kts | 103° |
| 2026-04-25 09:15 | 41.00341 | 3.87293 | 36166 ft | 439 kts | 102° |
| 2026-04-25 09:16 | 40.98914 | 3.95146 | 36166 ft | 439 kts | 103° |
| 2026-04-25 09:16 | 40.97488 | 4.02969 | 36166 ft | 439 kts | 103° |
| 2026-04-25 09:17 | 40.95333 | 4.14758 | 36169 ft | 439 kts | 103° |
| 2026-04-25 09:18 | 40.93899 | 4.22608 | 36172 ft | 439 kts | 103° |
| 2026-04-25 09:18 | 40.92449 | 4.30421 | 36171 ft | 440 kts | 103° |
| 2026-04-25 09:19 | 40.90988 | 4.38276 | 36171 ft | 440 kts | 103° |
| 2026-04-25 09:19 | 40.89526 | 4.46135 | 36171 ft | 440 kts | 103° |
| 2026-04-25 09:20 | 40.88066 | 4.53993 | 36170 ft | 440 kts | 103° |
| 2026-04-25 09:20 | 40.86601 | 4.61849 | 36170 ft | 440 kts | 102° |
| 2026-04-25 09:21 | 40.85412 | 4.69760 | 36173 ft | 439 kts | 95° |
| 2026-04-25 09:21 | 40.84678 | 4.77773 | 36174 ft | 439 kts | 96° |
| 2026-04-25 09:22 | 40.83943 | 4.85728 | 36176 ft | 439 kts | 96° |
| 2026-04-25 09:22 | 40.83197 | 4.93727 | 36174 ft | 439 kts | 96° |
| 2026-04-25 09:23 | 40.82440 | 5.01735 | 36175 ft | 439 kts | 96° |
| 2026-04-25 09:23 | 40.81676 | 5.09730 | 36175 ft | 438 kts | 96° |
| 2026-04-25 09:24 | 40.80915 | 5.17666 | 36172 ft | 439 kts | 96° |
| 2026-04-25 09:24 | 40.80151 | 5.25652 | 36174 ft | 439 kts | 96° |
| 2026-04-25 09:25 | 40.79378 | 5.33655 | 36180 ft | 439 kts | 97° |
| 2026-04-25 09:25 | 40.78987 | 5.37661 | 36297 ft | 439 kts | 97° |
| 2026-04-25 09:25 | 40.78602 | 5.41598 | 36558 ft | 438 kts | 97° |
| 2026-04-25 09:25 | 40.78214 | 5.45589 | 36802 ft | 438 kts | 97° |
| 2026-04-25 09:26 | 40.77824 | 5.49569 | 37037 ft | 437 kts | 97° |
| 2026-04-25 09:26 | 40.77429 | 5.53550 | 37158 ft | 436 kts | 97° |
| 2026-04-25 09:26 | 40.77032 | 5.57516 | 37177 ft | 435 kts | 97° |
| 2026-04-25 09:27 | 40.76236 | 5.65402 | 37180 ft | 433 kts | 97° |
| 2026-04-25 09:27 | 40.75454 | 5.73225 | 37177 ft | 433 kts | 97° |
| 2026-04-25 09:28 | 40.74660 | 5.81094 | 37175 ft | 433 kts | 97° |
| 2026-04-25 09:28 | 40.73857 | 5.88968 | 37177 ft | 433 kts | 97° |
| 2026-04-25 09:29 | 40.73047 | 5.96844 | 37181 ft | 433 kts | 97° |
| 2026-04-25 09:29 | 40.72235 | 6.04721 | 37183 ft | 434 kts | 97° |
| 2026-04-25 09:30 | 40.71413 | 6.12614 | 37187 ft | 434 kts | 97° |
| 2026-04-25 09:30 | 40.70586 | 6.20445 | 37189 ft | 434 kts | 97° |
| 2026-04-25 09:31 | 40.69754 | 6.28318 | 37191 ft | 434 kts | 97° |
| 2026-04-25 09:31 | 40.68916 | 6.36207 | 37190 ft | 434 kts | 97° |
| 2026-04-25 09:32 | 40.68072 | 6.44073 | 37190 ft | 434 kts | 97° |
| 2026-04-25 09:32 | 40.67229 | 6.51938 | 37190 ft | 434 kts | 97° |
| 2026-04-25 09:33 | 40.66380 | 6.59806 | 37186 ft | 434 kts | 97° |
| 2026-04-25 09:33 | 40.65519 | 6.67681 | 37186 ft | 434 kts | 97° |
| 2026-04-25 09:34 | 40.64660 | 6.75506 | 37189 ft | 434 kts | 97° |
| 2026-04-25 09:34 | 40.63790 | 6.83388 | 37187 ft | 434 kts | 97° |
| 2026-04-25 09:35 | 40.62916 | 6.91271 | 37189 ft | 434 kts | 97° |
| 2026-04-25 09:35 | 40.62031 | 6.99081 | 37188 ft | 434 kts | 97° |
| 2026-04-25 09:36 | 40.61136 | 7.06950 | 37187 ft | 434 kts | 97° |
| 2026-04-25 09:36 | 40.60248 | 7.14820 | 37186 ft | 434 kts | 97° |
| 2026-04-25 09:37 | 40.59364 | 7.22632 | 37185 ft | 434 kts | 97° |
| 2026-04-25 09:37 | 40.58464 | 7.30485 | 37185 ft | 434 kts | 97° |
| 2026-04-25 09:38 | 40.57551 | 7.38335 | 37184 ft | 434 kts | 98° |
| 2026-04-25 09:38 | 40.56655 | 7.46178 | 37183 ft | 433 kts | 94° |
| 2026-04-25 09:39 | 40.56891 | 7.54054 | 37182 ft | 431 kts | 82° |
| 2026-04-25 09:39 | 40.57590 | 7.61893 | 37185 ft | 432 kts | 82° |
| 2026-04-25 09:40 | 40.58598 | 7.73671 | 37185 ft | 431 kts | 82° |
| 2026-04-25 09:40 | 40.59256 | 7.81510 | 37184 ft | 431 kts | 82° |
| 2026-04-25 09:41 | 40.59915 | 7.89349 | 37174 ft | 431 kts | 82° |
| 2026-04-25 09:41 | 40.60571 | 7.97146 | 37171 ft | 431 kts | 82° |
| 2026-04-25 09:42 | 40.61231 | 8.05019 | 37157 ft | 430 kts | 82° |
| 2026-04-25 09:42 | 40.61877 | 8.12792 | 37147 ft | 430 kts | 82° |
| 2026-04-25 09:43 | 40.62509 | 8.20619 | 37139 ft | 430 kts | 84° |
| 2026-04-25 09:43 | 40.62046 | 8.28454 | 37140 ft | 432 kts | 103° |
| 2026-04-25 09:44 | 40.60569 | 8.36128 | 37145 ft | 433 kts | 103° |
| 2026-04-25 09:44 | 40.59100 | 8.43811 | 37157 ft | 433 kts | 102° |
| 2026-04-25 09:45 | 40.57627 | 8.51500 | 37149 ft | 434 kts | 103° |
| 2026-04-25 09:45 | 40.56141 | 8.59193 | 37150 ft | 434 kts | 103° |
| 2026-04-25 09:46 | 40.54653 | 8.66884 | 37150 ft | 434 kts | 103° |
| 2026-04-25 09:46 | 40.53157 | 8.74572 | 37159 ft | 434 kts | 103° |
| 2026-04-25 09:47 | 40.51655 | 8.82254 | 37157 ft | 434 kts | 103° |
| 2026-04-25 09:47 | 40.50152 | 8.89931 | 37156 ft | 434 kts | 103° |
| 2026-04-25 09:48 | 40.48642 | 8.97600 | 37155 ft | 434 kts | 103° |
| 2026-04-25 09:48 | 40.47122 | 9.05262 | 37138 ft | 433 kts | 103° |
| 2026-04-25 09:49 | 40.45603 | 9.12921 | 37158 ft | 433 kts | 103° |
| 2026-04-25 09:49 | 40.44091 | 9.20519 | 37152 ft | 433 kts | 103° |
| 2026-04-25 09:50 | 40.42553 | 9.28204 | 37149 ft | 432 kts | 104° |
| 2026-04-25 09:50 | 40.41018 | 9.35832 | 37145 ft | 432 kts | 104° |
| 2026-04-25 09:51 | 40.39486 | 9.43454 | 37156 ft | 432 kts | 104° |
| 2026-04-25 09:51 | 40.37961 | 9.51019 | 37160 ft | 432 kts | 104° |
| 2026-04-25 09:52 | 40.36415 | 9.58626 | 37162 ft | 431 kts | 104° |
| 2026-04-25 09:52 | 40.34864 | 9.66218 | 37154 ft | 431 kts | 104° |
| 2026-04-25 09:53 | 40.33312 | 9.73805 | 37148 ft | 431 kts | 104° |
| 2026-04-25 09:53 | 40.31763 | 9.81389 | 37150 ft | 431 kts | 104° |
| 2026-04-25 09:54 | 40.30207 | 9.88965 | 37157 ft | 431 kts | 104° |
| 2026-04-25 09:54 | 40.28643 | 9.96533 | 37164 ft | 430 kts | 104° |
| 2026-04-25 09:55 | 40.27339 | 10.02818 | 37163 ft | 430 kts | 104° |
| 2026-04-25 09:55 | 40.25765 | 10.10370 | 37164 ft | 430 kts | 104° |
| 2026-04-25 09:56 | 40.24188 | 10.17924 | 37158 ft | 430 kts | 104° |
| 2026-04-25 09:56 | 40.22610 | 10.25471 | 37172 ft | 430 kts | 105° |
| 2026-04-25 09:57 | 40.21026 | 10.33011 | 37171 ft | 430 kts | 105° |
| 2026-04-25 09:57 | 40.19447 | 10.40491 | 37167 ft | 429 kts | 105° |
| 2026-04-25 09:58 | 40.17851 | 10.48016 | 37166 ft | 429 kts | 105° |
| 2026-04-25 09:58 | 40.16251 | 10.55533 | 37165 ft | 429 kts | 105° |
| 2026-04-25 09:59 | 40.14645 | 10.63049 | 37178 ft | 429 kts | 105° |
| 2026-04-25 09:59 | 40.13047 | 10.70547 | 37177 ft | 428 kts | 105° |
| 2026-04-25 10:00 | 40.11452 | 10.78037 | 37182 ft | 428 kts | 105° |
| 2026-04-25 10:00 | 40.09841 | 10.85509 | 37182 ft | 427 kts | 105° |
| 2026-04-25 10:01 | 40.08229 | 10.92979 | 37177 ft | 427 kts | 105° |
| 2026-04-25 10:01 | 40.06613 | 11.00445 | 37176 ft | 427 kts | 105° |
| 2026-04-25 10:02 | 40.04989 | 11.07903 | 37176 ft | 427 kts | 105° |
| 2026-04-25 10:02 | 40.03370 | 11.15312 | 37170 ft | 427 kts | 105° |
| 2026-04-25 10:03 | 40.01736 | 11.22763 | 37170 ft | 427 kts | 105° |
| 2026-04-25 10:03 | 40.00096 | 11.30229 | 37182 ft | 427 kts | 105° |
| 2026-04-25 10:04 | 39.98457 | 11.37656 | 37179 ft | 427 kts | 105° |
| 2026-04-25 10:04 | 39.96815 | 11.45099 | 37182 ft | 426 kts | 105° |
| 2026-04-25 10:05 | 39.95172 | 11.52529 | 37181 ft | 426 kts | 105° |
| 2026-04-25 10:05 | 39.93532 | 11.59897 | 37177 ft | 426 kts | 105° |
| 2026-04-25 10:06 | 39.91869 | 11.67322 | 37173 ft | 425 kts | 105° |
| 2026-04-25 10:06 | 39.90211 | 11.74716 | 37172 ft | 425 kts | 105° |
| 2026-04-25 10:07 | 39.88553 | 11.82096 | 37175 ft | 424 kts | 107° |
| 2026-04-25 10:07 | 39.85892 | 11.88889 | 37180 ft | 426 kts | 127° |
| 2026-04-25 10:08 | 39.81541 | 11.94117 | 37176 ft | 428 kts | 143° |
| 2026-04-25 10:08 | 39.76663 | 11.98593 | 37167 ft | 428 kts | 143° |
| 2026-04-25 10:09 | 39.71794 | 12.03076 | 37165 ft | 429 kts | 143° |
| 2026-04-25 10:09 | 39.66954 | 12.07525 | 37165 ft | 429 kts | 143° |
| 2026-04-25 10:10 | 39.62077 | 12.11993 | 37157 ft | 429 kts | 143° |
| 2026-04-25 10:10 | 39.57202 | 12.16465 | 37168 ft | 429 kts | 143° |
| 2026-04-25 10:11 | 39.52317 | 12.20928 | 37166 ft | 430 kts | 143° |
| 2026-04-25 10:11 | 39.47427 | 12.25389 | 37168 ft | 430 kts | 143° |
| 2026-04-25 10:12 | 39.42538 | 12.29838 | 37170 ft | 430 kts | 143° |
| 2026-04-25 10:13 | 39.35191 | 12.36494 | 37174 ft | 430 kts | 143° |
| 2026-04-25 10:13 | 39.30292 | 12.40941 | 37179 ft | 430 kts | 143° |
| 2026-04-25 10:14 | 39.25422 | 12.45353 | 37176 ft | 431 kts | 143° |
| 2026-04-25 10:14 | 39.20504 | 12.49787 | 37175 ft | 431 kts | 143° |
| 2026-04-25 10:15 | 39.15584 | 12.54221 | 37176 ft | 431 kts | 143° |
| 2026-04-25 10:15 | 39.10666 | 12.58644 | 37175 ft | 431 kts | 143° |
| 2026-04-25 10:16 | 39.05780 | 12.63034 | 37173 ft | 431 kts | 143° |
| 2026-04-25 10:16 | 39.00840 | 12.67448 | 37172 ft | 431 kts | 143° |
| 2026-04-25 10:17 | 38.95912 | 12.71861 | 37173 ft | 432 kts | 143° |
| 2026-04-25 10:17 | 38.91005 | 12.76256 | 37174 ft | 432 kts | 143° |
| 2026-04-25 10:18 | 38.86066 | 12.80659 | 37180 ft | 432 kts | 143° |
| 2026-04-25 10:18 | 38.81122 | 12.85059 | 37176 ft | 432 kts | 143° |
| 2026-04-25 10:19 | 38.76172 | 12.89455 | 37172 ft | 433 kts | 143° |
| 2026-04-25 10:19 | 38.71220 | 12.93846 | 37172 ft | 433 kts | 143° |
| 2026-04-25 10:20 | 38.66264 | 12.98236 | 37174 ft | 433 kts | 143° |
| 2026-04-25 10:20 | 38.61344 | 13.02602 | 37176 ft | 433 kts | 144° |
| 2026-04-25 10:21 | 38.56381 | 13.06977 | 37171 ft | 434 kts | 144° |
| 2026-04-25 10:21 | 38.51410 | 13.11354 | 37172 ft | 434 kts | 144° |
| 2026-04-25 10:22 | 38.46432 | 13.15730 | 37173 ft | 434 kts | 143° |
| 2026-04-25 10:22 | 38.41454 | 13.20113 | 37171 ft | 435 kts | 143° |
| 2026-04-25 10:23 | 38.36471 | 13.24484 | 37169 ft | 435 kts | 144° |
| 2026-04-25 10:23 | 38.31481 | 13.28848 | 37167 ft | 435 kts | 144° |
| 2026-04-25 10:24 | 38.26487 | 13.33210 | 37166 ft | 436 kts | 144° |
| 2026-04-25 10:24 | 38.21516 | 13.37539 | 37170 ft | 436 kts | 144° |
| 2026-04-25 10:25 | 38.16476 | 13.41923 | 37165 ft | 436 kts | 144° |
| 2026-04-25 10:25 | 38.11506 | 13.46252 | 37167 ft | 436 kts | 144° |
| 2026-04-25 10:26 | 38.06499 | 13.50608 | 37179 ft | 437 kts | 144° |
| 2026-04-25 10:26 | 38.01478 | 13.54960 | 37169 ft | 437 kts | 144° |
| 2026-04-25 10:27 | 37.96451 | 13.59306 | 37163 ft | 438 kts | 144° |
| 2026-04-25 10:27 | 37.91436 | 13.63687 | 37159 ft | 437 kts | 140° |
| 2026-04-25 10:28 | 37.87365 | 13.69291 | 37161 ft | 432 kts | 120° |
| 2026-04-25 10:28 | 37.84841 | 13.76139 | 37156 ft | 430 kts | 110° |
| 2026-04-25 10:29 | 37.82631 | 13.83189 | 37125 ft | 432 kts | 110° |
| 2026-04-25 10:29 | 37.80396 | 13.90257 | 37135 ft | 433 kts | 110° |
| 2026-04-25 10:30 | 37.78157 | 13.97340 | 37132 ft | 434 kts | 110° |
| 2026-04-25 10:30 | 37.75897 | 14.04438 | 37139 ft | 435 kts | 110° |
| 2026-04-25 10:31 | 37.73599 | 14.11511 | 36803 ft | 437 kts | 110° |
| 2026-04-25 10:31 | 37.72427 | 14.15109 | 35705 ft | 447 kts | 110° |
| 2026-04-25 10:31 | 37.71239 | 14.18738 | 35061 ft | 446 kts | 110° |
| 2026-04-25 10:31 | 37.70059 | 14.22332 | 34564 ft | 441 kts | 110° |
| 2026-04-25 10:32 | 37.68891 | 14.25888 | 34073 ft | 435 kts | 110° |
| 2026-04-25 10:32 | 37.67736 | 14.29403 | 33541 ft | 430 kts | 110° |
| 2026-04-25 10:32 | 37.66598 | 14.32871 | 32979 ft | 426 kts | 110° |
| 2026-04-25 10:32 | 37.65471 | 14.36303 | 32395 ft | 421 kts | 110° |
| 2026-04-25 10:33 | 37.64357 | 14.39704 | 31833 ft | 417 kts | 110° |
| 2026-04-25 10:33 | 37.63011 | 14.42934 | 31308 ft | 417 kts | 123° |
| 2026-04-25 10:33 | 37.61057 | 14.45628 | 30783 ft | 418 kts | 138° |
| 2026-04-25 10:33 | 37.58596 | 14.47581 | 30270 ft | 421 kts | 153° |
| 2026-04-25 10:34 | 37.55815 | 14.48742 | 29649 ft | 421 kts | 161° |
| 2026-04-25 10:34 | 37.53003 | 14.49734 | 29047 ft | 418 kts | 161° |
| 2026-04-25 10:34 | 37.50213 | 14.50720 | 28470 ft | 415 kts | 161° |
| 2026-04-25 10:34 | 37.47444 | 14.51702 | 27909 ft | 412 kts | 161° |
| 2026-04-25 10:35 | 37.44698 | 14.52677 | 27362 ft | 408 kts | 161° |
| 2026-04-25 10:35 | 37.42012 | 14.53631 | 26823 ft | 405 kts | 161° |
| 2026-04-25 10:35 | 37.39305 | 14.54591 | 26295 ft | 402 kts | 161° |
| 2026-04-25 10:35 | 37.36632 | 14.55539 | 25606 ft | 396 kts | 161° |
| 2026-04-25 10:36 | 37.34051 | 14.56637 | 24743 ft | 387 kts | 149° |
| 2026-04-25 10:36 | 37.31947 | 14.58691 | 23936 ft | 374 kts | 127° |
| 2026-04-25 10:36 | 37.30698 | 14.61435 | 23032 ft | 364 kts | 105° |
| 2026-04-25 10:36 | 37.30357 | 14.64533 | 22103 ft | 357 kts | 84° |
| 2026-04-25 10:37 | 37.30727 | 14.67593 | 21170 ft | 354 kts | 78° |
| 2026-04-25 10:37 | 37.31170 | 14.70623 | 20306 ft | 352 kts | 78° |
| 2026-04-25 10:37 | 37.31615 | 14.73631 | 19534 ft | 348 kts | 78° |
| 2026-04-25 10:37 | 37.32045 | 14.76553 | 19169 ft | 333 kts | 78° |
| 2026-04-25 10:38 | 37.32461 | 14.79425 | 18264 ft | 336 kts | 78° |
| 2026-04-25 10:38 | 37.32868 | 14.82256 | 17983 ft | 319 kts | 78° |
| 2026-04-25 10:38 | 37.33249 | 14.84924 | 17718 ft | 304 kts | 78° |
| 2026-04-25 10:38 | 37.33619 | 14.87508 | 17208 ft | 298 kts | 78° |
| 2026-04-25 10:39 | 37.33983 | 14.90060 | 16648 ft | 295 kts | 78° |
| 2026-04-25 10:39 | 37.34341 | 14.92574 | 15875 ft | 290 kts | 78° |
| 2026-04-25 10:39 | 37.34694 | 14.95054 | 15003 ft | 287 kts | 78° |
| 2026-04-25 10:39 | 37.35045 | 14.97514 | 14161 ft | 285 kts | 78° |
| 2026-04-25 10:40 | 37.35389 | 14.99950 | 13419 ft | 279 kts | 78° |
| 2026-04-25 10:40 | 37.35728 | 15.02350 | 13012 ft | 279 kts | 78° |
| 2026-04-25 10:40 | 37.36066 | 15.04741 | 12612 ft | 277 kts | 78° |
| 2026-04-25 10:40 | 37.36290 | 15.06314 | 12346 ft | 276 kts | 78° |
| 2026-04-25 10:41 | 37.36732 | 15.09443 | 11821 ft | 273 kts | 78° |
| 2026-04-25 10:41 | 37.37063 | 15.11788 | 11431 ft | 272 kts | 78° |
| 2026-04-25 10:41 | 37.37391 | 15.14116 | 11036 ft | 270 kts | 78° |
| 2026-04-25 10:41 | 37.37715 | 15.16427 | 10647 ft | 268 kts | 78° |
| 2026-04-25 10:42 | 37.38040 | 15.18729 | 10264 ft | 267 kts | 78° |
| 2026-04-25 10:42 | 37.38362 | 15.21016 | 9860 ft | 264 kts | 78° |
| 2026-04-25 10:42 | 37.38679 | 15.23286 | 9459 ft | 262 kts | 79° |
| 2026-04-25 10:42 | 37.38992 | 15.25538 | 9077 ft | 261 kts | 79° |
| 2026-04-25 10:43 | 37.39300 | 15.27754 | 8838 ft | 248 kts | 79° |
| 2026-04-25 10:43 | 37.39585 | 15.29826 | 8784 ft | 238 kts | 78° |
| 2026-04-25 10:43 | 37.39869 | 15.31868 | 8647 ft | 237 kts | 78° |
| 2026-04-25 10:43 | 37.40153 | 15.33905 | 8292 ft | 235 kts | 78° |
| 2026-04-25 10:44 | 37.40435 | 15.35921 | 7973 ft | 234 kts | 78° |
| 2026-04-25 10:44 | 37.40716 | 15.37928 | 7665 ft | 232 kts | 78° |
| 2026-04-25 10:44 | 37.40993 | 15.39924 | 7348 ft | 231 kts | 78° |
| 2026-04-25 10:44 | 37.41267 | 15.41911 | 7049 ft | 230 kts | 78° |
| 2026-04-25 10:45 | 37.41539 | 15.43886 | 6877 ft | 229 kts | 78° |
| 2026-04-25 10:45 | 37.41812 | 15.45862 | 6623 ft | 229 kts | 78° |
| 2026-04-25 10:45 | 37.42085 | 15.47826 | 6395 ft | 228 kts | 77° |
| 2026-04-25 10:45 | 37.42356 | 15.49785 | 6193 ft | 227 kts | 77° |
| 2026-04-25 10:46 | 37.42820 | 15.51648 | 6014 ft | 222 kts | 54° |
| 2026-04-25 10:46 | 37.43937 | 15.52912 | 5832 ft | 215 kts | 23° |
| 2026-04-25 10:46 | 37.45333 | 15.53229 | 5649 ft | 199 kts | 354° |
| 2026-04-25 10:46 | 37.46681 | 15.52948 | 5481 ft | 195 kts | 351° |
| 2026-04-25 10:47 | 37.48012 | 15.52657 | 5318 ft | 194 kts | 351° |
| 2026-04-25 10:47 | 37.49340 | 15.52370 | 5150 ft | 193 kts | 351° |
| 2026-04-25 10:47 | 37.50655 | 15.52055 | 4984 ft | 193 kts | 343° |
| 2026-04-25 10:47 | 37.51773 | 15.51150 | 4818 ft | 195 kts | 312° |
| 2026-04-25 10:48 | 37.52235 | 15.50177 | 4704 ft | 198 kts | 291° |
| 2026-04-25 10:48 | 37.52341 | 15.48447 | 4540 ft | 203 kts | 263° |
| 2026-04-25 10:48 | 37.52094 | 15.46705 | 4388 ft | 196 kts | 263° |
| 2026-04-25 10:48 | 37.51861 | 15.45087 | 4225 ft | 180 kts | 263° |
| 2026-04-25 10:49 | 37.51584 | 15.43141 | 4062 ft | 158 kts | 264° |
| 2026-04-25 10:49 | 37.51458 | 15.42241 | 3960 ft | 152 kts | 264° |
| 2026-04-25 10:49 | 37.51280 | 15.40950 | 3836 ft | 149 kts | 264° |
| 2026-04-25 10:49 | 37.51103 | 15.39669 | 3715 ft | 148 kts | 264° |
| 2026-04-25 10:50 | 37.50812 | 15.38416 | 3592 ft | 150 kts | 253° |
| 2026-04-25 10:50 | 37.50459 | 15.37182 | 3485 ft | 150 kts | 254° |
| 2026-04-25 10:50 | 37.50112 | 15.35964 | 3374 ft | 150 kts | 254° |
| 2026-04-25 10:50 | 37.49761 | 15.34729 | 3252 ft | 149 kts | 255° |
| 2026-04-25 10:51 | 37.49413 | 15.33496 | 3136 ft | 149 kts | 254° |
| 2026-04-25 10:51 | 37.49065 | 15.32270 | 3021 ft | 149 kts | 254° |
| 2026-04-25 10:51 | 37.48737 | 15.31035 | 2905 ft | 147 kts | 261° |
| 2026-04-25 10:51 | 37.48594 | 15.29773 | 2797 ft | 145 kts | 269° |
| 2026-04-25 10:52 | 37.48492 | 15.28512 | 2676 ft | 144 kts | 262° |
| 2026-04-25 10:52 | 37.48388 | 15.27261 | 2568 ft | 143 kts | 262° |
| 2026-04-25 10:52 | 37.48284 | 15.26014 | 2465 ft | 143 kts | 262° |
| 2026-04-25 10:52 | 37.48181 | 15.24770 | 2356 ft | 143 kts | 263° |
| 2026-04-25 10:53 | 37.48079 | 15.23530 | 2245 ft | 142 kts | 263° |
| 2026-04-25 10:53 | 37.47977 | 15.22291 | 2136 ft | 142 kts | 263° |
| 2026-04-25 10:53 | 37.47877 | 15.21070 | 2030 ft | 142 kts | 262° |
| 2026-04-25 10:53 | 37.47774 | 15.19834 | 1896 ft | 143 kts | 262° |
| 2026-04-25 10:54 | 37.47672 | 15.18597 | 1686 ft | 142 kts | 263° |
| 2026-04-25 10:54 | 37.47603 | 15.17767 | 1558 ft | 141 kts | 263° |
| 2026-04-25 10:54 | 37.47466 | 15.16144 | 1307 ft | 141 kts | 262° |
| 2026-04-25 10:54 | 37.47363 | 15.14918 | 1115 ft | 141 kts | 263° |
| 2026-04-25 10:55 | 37.47260 | 15.13689 | 934 ft | 141 kts | 263° |
| 2026-04-25 10:55 | 37.47155 | 15.12453 | 743 ft | 143 kts | 263° |
| 2026-04-25 10:55 | 37.47049 | 15.11194 | 548 ft | 146 kts | 264° |
| 2026-04-25 10:55 | 37.46947 | 15.09912 | 380 ft | 147 kts | 264° |
| 2026-04-25 10:56 | 37.46854 | 15.08630 | 214 ft | 147 kts | 262° |
| 2026-04-25 10:56 | 37.46734 | 15.07359 | 33 ft | 142 kts | 264° |
| 2026-04-25 10:56 | 37.46655 | 15.06352 | 34 ft | 76 kts | 265° |
| 2026-04-25 10:56 | 37.46621 | 15.05961 | 35 ft | 36 kts | 264° |
| 2026-04-25 10:57 | 37.46594 | 15.05642 | 33 ft | 37 kts | 263° |
| 2026-04-25 10:57 | 37.46619 | 15.05488 | 37 ft | 11 kts | 313° |
| 2026-04-25 10:57 | 37.46674 | 15.05462 | 39 ft | 7 kts | 358° |
| 2026-04-25 10:57 | 37.46688 | 15.05465 | 39 ft | 0 kts | 13° |
| 2026-04-25 11:02 | 37.46689 | 15.05465 | 39 ft | 1 kts | 13° |
| 2026-04-25 11:03 | 37.46717 | 15.05481 | 39 ft | 8 kts | 31° |
| 2026-04-25 11:03 | 37.46754 | 15.05563 | 39 ft | 13 kts | 81° |
| 2026-04-25 11:03 | 37.46766 | 15.05691 | 36 ft | 16 kts | 82° |
| 2026-04-25 11:03 | 37.46778 | 15.05837 | 37 ft | 18 kts | 88° |
| 2026-04-25 11:04 | 37.46789 | 15.05975 | 35 ft | 16 kts | 83° |
| 2026-04-25 11:04 | 37.46797 | 15.06072 | 34 ft | 6 kts | 83° |
| 2026-04-25 11:04 | 37.46804 | 15.06134 | 34 ft | 9 kts | 82° |
| 2026-04-25 11:04 | 37.46807 | 15.06189 | 33 ft | 11 kts | 85° |
| 2026-04-25 11:05 | 37.46819 | 15.06341 | 29 ft | 15 kts | 84° |
| 2026-04-25 11:05 | 37.46840 | 15.06430 | 27 ft | 9 kts | 26° |
| 2026-04-25 11:05 | 37.46910 | 15.06450 | 26 ft | 11 kts | 19° |
| 2026-04-25 11:05 | 37.46959 | 15.06471 | 27 ft | 2 kts | 18° |
| 2026-04-25 11:06 | 37.46965 | 15.06473 | 27 ft | 0 kts | 18° |